createdAt,value
2023-02-14T00:00:31.054Z,30.50
2023-02-14T00:02:57.952Z,23.60
2023-02-14T00:05:24.911Z,27.50
2023-02-14T00:07:51.786Z,26.20
2023-02-14T00:10:19.232Z,34.60
2023-02-14T00:12:46.282Z,28.40
2023-02-14T00:15:26.053Z,25.90
2023-02-14T00:17:55.155Z,22.60
2023-02-14T00:20:22.786Z,21.60
2023-02-14T00:22:49.635Z,28.60
2023-02-14T00:25:16.684Z,35.90
2023-02-14T00:27:43.520Z,40.60
2023-02-14T00:30:11.842Z,33.20
2023-02-14T00:32:39.846Z,20.30
2023-02-14T00:35:07.325Z,22.40
2023-02-14T00:37:34.794Z,23.00
2023-02-14T00:40:01.861Z,23.10
2023-02-14T00:42:28.657Z,27.40
2023-02-14T00:44:55.513Z,23.30
2023-02-14T00:47:22.563Z,25.00
2023-02-14T00:49:49.339Z,25.40
2023-02-14T00:52:16.117Z,27.00
2023-02-14T00:54:43.080Z,26.90
2023-02-14T00:57:09.922Z,28.00
2023-02-14T00:59:36.976Z,32.30
2023-02-14T01:02:04.465Z,27.40
2023-02-14T01:04:31.316Z,33.80
2023-02-14T01:06:58.329Z,39.50
2023-02-14T01:09:25.364Z,33.80
2023-02-14T01:11:52.206Z,35.80
2023-02-14T01:14:19.052Z,41.50
2023-02-14T01:16:46.178Z,42.80
2023-02-14T01:19:13.372Z,42.50
2023-02-14T01:21:44.032Z,44.80
2023-02-14T01:24:12.370Z,44.70
2023-02-14T01:26:41.254Z,48.70
2023-02-14T01:29:09.340Z,38.60
2023-02-14T01:31:36.540Z,39.50
2023-02-14T01:34:03.832Z,36.10
2023-02-14T01:36:33.276Z,40.60
2023-02-14T01:39:02.450Z,45.80
2023-02-14T01:41:31.196Z,43.60
2023-02-14T01:43:58.171Z,42.00
2023-02-14T01:46:26.642Z,40.40
2023-02-14T01:49:01.499Z,37.20
2023-02-14T01:51:29.334Z,35.40
2023-02-14T01:53:56.931Z,36.50
2023-02-14T01:56:34.898Z,36.10
2023-02-14T01:59:03.188Z,42.10
2023-02-14T02:01:30.477Z,54.20
2023-02-14T02:04:00.181Z,49.60
2023-02-14T02:06:32.866Z,37.40
2023-02-14T02:08:59.772Z,31.10
2023-02-14T02:11:28.044Z,30.90
2023-02-14T02:13:55.500Z,35.50
2023-02-14T02:16:47.607Z,31.00
2023-02-14T02:19:31.667Z,36.50
2023-02-14T02:22:09.685Z,49.60
2023-02-14T02:24:39.598Z,34.10
2023-02-14T02:27:26.187Z,31.80
2023-02-14T02:30:05.894Z,29.60
2023-02-14T02:33:11.406Z,33.00
2023-02-14T02:35:41.106Z,29.90
2023-02-14T02:38:13.686Z,27.80
2023-02-14T02:40:40.521Z,27.70
2023-02-14T02:43:08.597Z,22.60
2023-02-14T02:46:04.980Z,26.80
2023-02-14T02:48:36.646Z,28.70
2023-02-14T02:51:26.070Z,19.70
2023-02-14T02:54:05.395Z,22.40
2023-02-14T02:56:46.799Z,24.50
2023-02-14T02:59:22.432Z,24.10
2023-02-14T03:02:12.428Z,24.50
2023-02-14T03:04:56.350Z,32.30
2023-02-14T03:07:35.185Z,26.70
2023-02-14T03:10:07.106Z,35.20
2023-02-14T03:12:33.884Z,42.60
2023-02-14T03:15:25.756Z,37.80
2023-02-14T03:18:02.920Z,38.00
2023-02-14T03:20:45.300Z,41.20
2023-02-14T03:23:20.943Z,46.70
2023-02-14T03:26:06.842Z,40.40
2023-02-14T03:28:36.958Z,41.40
2023-02-14T03:31:11.514Z,37.00
2023-02-14T03:33:47.036Z,33.00
2023-02-14T03:36:20.172Z,35.60
2023-02-14T03:38:50.324Z,33.90
2023-02-14T03:41:21.902Z,36.10
2023-02-14T03:43:51.803Z,36.60
2023-02-14T03:46:25.064Z,32.70
2023-02-14T03:48:54.089Z,40.60
2023-02-14T03:51:22.980Z,32.70
2023-02-14T03:53:52.691Z,36.10
2023-02-14T03:56:26.496Z,30.60
2023-02-14T03:58:56.674Z,30.30
2023-02-14T04:01:25.424Z,32.60
2023-02-14T04:03:54.283Z,29.40
2023-02-14T04:06:21.434Z,26.40
2023-02-14T04:08:48.344Z,30.00
2023-02-14T04:11:15.353Z,28.30
2023-02-14T04:13:42.378Z,19.60
2023-02-14T04:16:09.528Z,28.80
2023-02-14T04:18:55.307Z,38.00
2023-02-14T04:21:22.366Z,38.00
2023-02-14T04:23:49.402Z,34.00
2023-02-14T04:26:16.247Z,35.00
2023-02-14T04:28:43.092Z,40.90
2023-02-14T04:31:11.864Z,36.60
2023-02-14T04:33:39.694Z,37.30
2023-02-14T04:36:06.897Z,38.80
2023-02-14T04:38:33.753Z,37.90
2023-02-14T04:41:01.263Z,38.30
2023-02-14T04:43:28.858Z,51.40
2023-02-14T04:45:55.698Z,49.80
2023-02-14T04:48:22.950Z,47.30
2023-02-14T04:50:54.104Z,44.10
2023-02-14T04:53:21.336Z,39.40
2023-02-14T04:55:51.466Z,39.00
2023-02-14T04:58:18.918Z,39.60
2023-02-14T05:00:46.031Z,35.90
2023-02-14T05:03:13.094Z,45.40
2023-02-14T05:05:40.061Z,44.20
2023-02-14T05:08:07.099Z,38.90
2023-02-14T05:10:33.883Z,38.10
2023-02-14T05:13:01.058Z,52.20
2023-02-14T05:15:27.751Z,36.10
2023-02-14T05:17:54.430Z,43.50
2023-02-14T05:20:21.123Z,41.80
2023-02-14T05:22:47.956Z,45.00
2023-02-14T05:25:14.643Z,40.60
2023-02-14T05:27:41.433Z,33.70
2023-02-14T05:30:09.570Z,34.70
2023-02-14T05:32:36.306Z,55.90
2023-02-14T05:35:02.982Z,51.20
2023-02-14T05:37:29.827Z,51.50
2023-02-14T05:39:56.666Z,48.50
2023-02-14T05:42:23.299Z,39.70
2023-02-14T05:44:49.975Z,47.20
2023-02-14T05:47:16.779Z,40.40
2023-02-14T05:49:43.384Z,44.70
2023-02-14T05:52:10.112Z,40.60
2023-02-14T05:54:37.103Z,40.30
2023-02-14T05:57:03.953Z,48.80
2023-02-14T05:59:30.801Z,42.70
2023-02-14T06:01:57.515Z,38.40
2023-02-14T06:04:24.470Z,41.10
2023-02-14T06:06:51.314Z,39.50
2023-02-14T06:09:18.782Z,41.30
2023-02-14T06:11:45.831Z,41.10
2023-02-14T06:14:12.677Z,40.80
2023-02-14T06:16:39.632Z,38.00
2023-02-14T06:19:06.442Z,45.90
2023-02-14T06:21:33.197Z,35.00
2023-02-14T06:23:59.911Z,37.00
2023-02-14T06:26:29.412Z,38.70
2023-02-14T06:28:56.886Z,51.10
2023-02-14T06:31:24.140Z,43.20
2023-02-14T06:33:52.120Z,45.10
2023-02-14T06:36:19.577Z,51.10
2023-02-14T06:38:48.232Z,49.70
2023-02-14T06:41:17.357Z,49.90
2023-02-14T06:43:45.286Z,46.10
2023-02-14T06:46:12.097Z,39.40
2023-02-14T06:48:38.792Z,40.90
2023-02-14T06:51:05.516Z,47.30
2023-02-14T06:53:32.638Z,40.00
2023-02-14T06:55:59.429Z,44.10
2023-02-14T06:58:26.276Z,31.20
2023-02-14T07:00:54.976Z,32.80
2023-02-14T07:03:21.812Z,30.40
2023-02-14T07:05:48.417Z,35.20
2023-02-14T07:08:15.286Z,41.50
2023-02-14T07:10:41.916Z,34.50
2023-02-14T07:13:08.555Z,35.70
2023-02-14T07:15:35.619Z,27.10
2023-02-14T07:18:02.657Z,40.90
2023-02-14T07:20:29.556Z,48.50
2023-02-14T07:22:56.537Z,49.70
2023-02-14T07:25:23.385Z,42.30
2023-02-14T07:27:50.217Z,40.80
2023-02-14T07:30:17.201Z,44.10
2023-02-14T07:32:44.123Z,48.60
2023-02-14T07:35:11.372Z,44.50
2023-02-14T07:37:38.416Z,34.30
2023-02-14T07:40:08.730Z,36.40
2023-02-14T07:42:39.262Z,44.30
2023-02-14T07:45:20.727Z,34.70
2023-02-14T07:47:52.825Z,31.80
2023-02-14T07:50:20.615Z,36.40
2023-02-14T07:52:47.734Z,30.00
2023-02-14T07:55:14.975Z,31.30
2023-02-14T07:57:41.828Z,36.60
2023-02-14T08:00:09.719Z,30.00
2023-02-14T08:02:39.806Z,51.00
2023-02-14T08:05:06.923Z,38.20
2023-02-14T08:07:33.920Z,42.70
2023-02-14T08:10:00.632Z,41.40
2023-02-14T08:12:46.098Z,50.00
2023-02-14T08:15:31.908Z,41.00
2023-02-14T08:17:58.815Z,44.30
2023-02-14T08:20:25.441Z,109.80
2023-02-14T08:22:52.135Z,64.20
2023-02-14T08:25:18.865Z,38.90
2023-02-14T08:27:45.524Z,42.00
2023-02-14T08:30:12.359Z,34.50
2023-02-14T08:32:39.164Z,46.30
2023-02-14T08:35:06.446Z,37.90
2023-02-14T08:37:33.297Z,49.60
2023-02-14T08:40:00.154Z,57.10
2023-02-14T08:42:26.792Z,52.90
2023-02-14T08:44:53.613Z,42.00
2023-02-14T08:47:20.439Z,68.10
2023-02-14T08:49:47.087Z,46.90
2023-02-14T08:52:13.806Z,36.20
2023-02-14T08:54:40.451Z,38.80
2023-02-14T08:57:07.062Z,25.80
2023-02-14T08:59:34.431Z,38.50
2023-02-14T09:02:01.288Z,36.80
2023-02-14T09:04:27.937Z,35.10
2023-02-14T09:06:54.673Z,31.30
2023-02-14T09:09:21.616Z,26.50
2023-02-14T09:11:48.476Z,35.10
2023-02-14T09:14:16.375Z,32.30
2023-02-14T09:16:43.144Z,43.00
2023-02-14T09:19:10.050Z,38.00
2023-02-14T09:21:36.859Z,43.60
2023-02-14T09:24:03.589Z,46.30
2023-02-14T09:26:30.344Z,46.10
2023-02-14T09:28:57.027Z,50.10
2023-02-14T09:31:24.334Z,36.00
2023-02-14T09:33:51.840Z,37.50
2023-02-14T09:36:18.846Z,41.70
2023-02-14T09:38:46.388Z,39.10
2023-02-14T09:41:30.060Z,31.70
2023-02-14T09:44:26.160Z,31.30
2023-02-14T09:46:54.264Z,29.40
2023-02-14T09:49:28.386Z,24.70
2023-02-14T09:51:55.585Z,28.50
2023-02-14T09:54:25.714Z,25.10
2023-02-14T09:57:25.011Z,20.30
2023-02-14T10:00:02.887Z,28.70
2023-02-14T10:02:39.617Z,29.10
2023-02-14T10:05:06.644Z,24.90
2023-02-14T10:07:41.866Z,29.80
2023-02-14T10:10:40.873Z,40.90
2023-02-14T10:13:26.961Z,32.50
2023-02-14T10:15:59.949Z,25.10
2023-02-14T10:18:38.736Z,28.70
2023-02-14T10:21:07.890Z,27.40
2023-02-14T10:23:37.897Z,22.90
2023-02-14T10:26:04.736Z,20.70
2023-02-14T10:28:42.624Z,25.50
2023-02-14T10:31:34.532Z,17.40
2023-02-14T10:34:22.308Z,21.30
2023-02-14T10:37:07.672Z,24.10
2023-02-14T10:39:53.602Z,18.30
2023-02-14T10:42:23.444Z,16.10
2023-02-14T10:44:53.082Z,18.80
2023-02-14T10:47:26.983Z,16.10
2023-02-14T10:49:53.616Z,18.70
2023-02-14T10:52:39.110Z,19.50
2023-02-14T10:55:13.885Z,20.90
2023-02-14T10:57:44.648Z,19.60
2023-02-14T11:00:14.584Z,21.10
2023-02-14T11:02:43.066Z,18.20
2023-02-14T11:05:27.719Z,20.40
2023-02-14T11:07:54.979Z,21.50
2023-02-14T11:10:24.540Z,19.90
2023-02-14T11:12:51.532Z,18.70
2023-02-14T11:15:21.447Z,16.10
2023-02-14T11:17:48.347Z,11.20
2023-02-14T11:20:26.668Z,16.70
2023-02-14T11:22:53.849Z,14.30
2023-02-14T11:25:20.464Z,16.40
2023-02-14T11:27:50.401Z,17.40
2023-02-14T11:30:26.308Z,15.00
2023-02-14T11:32:56.480Z,15.30
2023-02-14T11:35:27.315Z,16.20
2023-02-14T11:37:57.857Z,17.00
2023-02-14T11:40:30.621Z,20.90
2023-02-14T11:43:13.481Z,16.70
2023-02-14T11:45:43.001Z,17.10
2023-02-14T11:48:19.869Z,22.20
2023-02-14T11:51:04.659Z,36.00
2023-02-14T11:53:45.653Z,31.40
2023-02-14T11:56:13.128Z,18.50
2023-02-14T11:58:50.922Z,18.40
2023-02-14T12:01:24.331Z,16.60
2023-02-14T12:03:51.937Z,15.70
2023-02-14T12:06:25.883Z,13.00
2023-02-14T12:09:07.065Z,17.20
2023-02-14T12:11:33.697Z,9.50
2023-02-14T12:14:00.566Z,13.90
2023-02-14T12:16:34.370Z,11.50
2023-02-14T12:19:06.054Z,10.30
2023-02-14T12:21:51.665Z,12.00
2023-02-14T12:24:36.864Z,13.00
2023-02-14T12:27:40.110Z,12.80
2023-02-14T12:30:14.336Z,12.60
2023-02-14T12:32:49.408Z,13.00
2023-02-14T12:35:18.297Z,11.70
2023-02-14T12:38:04.960Z,15.20
2023-02-14T12:40:40.245Z,11.30
2023-02-14T12:43:19.374Z,9.90
2023-02-14T12:45:49.144Z,11.70
2023-02-14T12:48:38.996Z,10.60
2023-02-14T12:51:31.911Z,11.10
2023-02-14T12:54:07.777Z,9.00
2023-02-14T12:56:40.589Z,10.70
2023-02-14T12:59:07.393Z,10.80
2023-02-14T13:01:39.172Z,8.70
2023-02-14T13:04:18.297Z,11.70
2023-02-14T13:06:48.407Z,11.70
2023-02-14T13:09:35.141Z,11.80
2023-02-14T13:12:11.799Z,11.40
2023-02-14T13:14:58.094Z,11.60
2023-02-14T13:17:38.861Z,11.50
2023-02-14T13:20:05.699Z,11.20
2023-02-14T13:22:34.209Z,11.20
2023-02-14T13:25:04.095Z,10.60
2023-02-14T13:27:37.485Z,9.40
2023-02-14T13:30:27.914Z,11.90
2023-02-14T13:32:56.783Z,10.50
2023-02-14T13:35:24.234Z,11.80
2023-02-14T13:37:58.051Z,10.20
2023-02-14T13:40:26.316Z,8.90
2023-02-14T13:42:55.205Z,11.60
2023-02-14T13:45:40.474Z,9.10
2023-02-14T13:48:09.903Z,9.70
2023-02-14T13:50:38.726Z,12.10
2023-02-14T13:53:05.533Z,10.20
2023-02-14T13:55:36.461Z,10.60
2023-02-14T13:58:07.588Z,11.10
2023-02-14T14:00:39.804Z,10.10
2023-02-14T14:03:07.754Z,10.10
2023-02-14T14:05:35.695Z,11.50
2023-02-14T14:08:18.513Z,14.00
2023-02-14T14:10:46.818Z,11.20
2023-02-14T14:13:32.676Z,13.10
2023-02-14T14:16:18.597Z,8.70
2023-02-14T14:18:45.616Z,10.60
2023-02-14T14:21:30.990Z,14.60
2023-02-14T14:24:16.927Z,11.00
2023-02-14T14:26:47.765Z,18.10
2023-02-14T14:29:21.106Z,12.20
2023-02-14T14:31:51.377Z,11.50
2023-02-14T14:34:19.304Z,10.30
2023-02-14T14:36:46.762Z,14.30
2023-02-14T14:39:25.071Z,8.90
2023-02-14T14:41:52.734Z,9.70
2023-02-14T14:44:19.522Z,9.80
2023-02-14T14:46:46.908Z,9.00
2023-02-14T14:49:16.104Z,9.70
2023-02-14T14:51:44.672Z,10.30
2023-02-14T14:54:16.020Z,12.30
2023-02-14T14:56:51.089Z,12.90
2023-02-14T14:59:34.736Z,10.80
2023-02-14T15:02:02.499Z,11.40
2023-02-14T15:04:31.221Z,9.70
2023-02-14T15:07:12.978Z,10.40
2023-02-14T15:09:43.212Z,9.90
2023-02-14T15:12:30.218Z,10.50
2023-02-14T15:14:57.285Z,8.90
2023-02-14T15:17:28.672Z,11.00
2023-02-14T15:19:58.947Z,8.60
2023-02-14T15:22:27.014Z,10.20
2023-02-14T15:24:53.756Z,10.10
2023-02-14T15:27:22.434Z,10.30
2023-02-14T15:29:59.833Z,11.00
2023-02-14T15:32:28.144Z,9.60
2023-02-14T15:34:55.970Z,10.10
2023-02-14T15:37:25.067Z,13.90
2023-02-14T15:39:52.860Z,10.50
2023-02-14T15:42:22.842Z,8.70
2023-02-14T15:44:49.679Z,14.50
2023-02-14T15:47:16.956Z,14.00
2023-02-14T15:49:45.417Z,12.10
2023-02-14T15:52:14.314Z,9.70
2023-02-14T15:54:48.116Z,10.10
2023-02-14T15:57:35.478Z,13.60
2023-02-14T16:00:06.778Z,13.30
2023-02-14T16:02:41.395Z,15.50
2023-02-14T16:05:15.870Z,15.00
2023-02-14T16:07:55.771Z,16.70
2023-02-14T16:10:31.002Z,15.90
2023-02-14T16:13:00.717Z,17.70
2023-02-14T16:15:29.622Z,19.10
2023-02-14T16:17:57.064Z,21.20
2023-02-14T16:20:39.293Z,19.30
2023-02-14T16:23:28.816Z,17.60
2023-02-14T16:26:00.206Z,20.80
2023-02-14T16:28:31.140Z,20.00
2023-02-14T16:30:59.685Z,22.00
2023-02-14T16:33:28.704Z,20.10
2023-02-14T16:36:00.869Z,25.10
2023-02-14T16:38:35.942Z,23.00
2023-02-14T16:41:06.804Z,26.90
2023-02-14T16:43:35.115Z,23.90
2023-02-14T16:46:02.664Z,25.60
2023-02-14T16:48:32.494Z,24.30
2023-02-14T16:51:00.047Z,29.80
2023-02-14T16:53:28.626Z,55.90
2023-02-14T16:55:57.324Z,40.90
2023-02-14T16:58:29.899Z,42.40
2023-02-14T17:00:58.962Z,23.90
2023-02-14T17:03:27.474Z,16.70
2023-02-14T17:05:56.357Z,19.30
2023-02-14T17:08:23.616Z,15.60
2023-02-14T17:10:52.097Z,15.60
2023-02-14T17:13:21.994Z,17.70
2023-02-14T17:15:49.270Z,16.10
2023-02-14T17:18:17.954Z,16.20
2023-02-14T17:20:46.432Z,17.00
2023-02-14T17:23:15.355Z,20.60
2023-02-14T17:25:43.385Z,16.50
2023-02-14T17:28:11.267Z,25.10
2023-02-14T17:30:39.740Z,22.30
2023-02-14T17:33:08.419Z,21.00
2023-02-14T17:35:36.527Z,19.40
2023-02-14T17:38:05.594Z,20.20
2023-02-14T17:40:33.462Z,20.80
2023-02-14T17:43:02.782Z,22.20
2023-02-14T17:45:30.830Z,18.90
2023-02-14T17:47:58.903Z,21.20
2023-02-14T17:50:27.170Z,20.50
2023-02-14T17:52:58.177Z,23.90
2023-02-14T17:55:26.393Z,21.90
2023-02-14T17:57:55.279Z,19.00
2023-02-14T18:00:23.496Z,22.60
2023-02-14T18:02:52.067Z,26.60
2023-02-14T18:05:19.707Z,23.20
2023-02-14T18:07:47.909Z,27.20
2023-02-14T18:10:16.453Z,22.50
2023-02-14T18:12:44.524Z,27.90
2023-02-14T18:15:12.911Z,28.00
2023-02-14T18:17:42.107Z,28.80
2023-02-14T18:20:12.339Z,28.10
2023-02-14T18:22:40.908Z,26.30
2023-02-14T18:25:09.388Z,59.50
2023-02-14T18:27:37.461Z,118.00
2023-02-14T18:30:06.156Z,34.20
2023-02-14T18:32:35.035Z,24.10
2023-02-14T18:35:03.878Z,24.60
2023-02-14T18:37:32.197Z,26.50
2023-02-14T18:40:01.611Z,28.10
2023-02-14T18:42:29.512Z,37.80
2023-02-14T18:44:57.237Z,36.50
2023-02-14T18:47:26.999Z,42.30
2023-02-14T18:49:55.622Z,61.70
2023-02-14T18:52:24.556Z,60.00
2023-02-14T18:54:53.076Z,54.60
2023-02-14T18:57:21.678Z,43.80
2023-02-14T18:59:50.068Z,46.10
2023-02-14T19:02:22.309Z,40.20
2023-02-14T19:04:54.962Z,41.30
2023-02-14T19:07:23.186Z,38.60
2023-02-14T19:09:54.857Z,45.70
2023-02-14T19:12:23.740Z,44.50
2023-02-14T19:14:53.400Z,38.40
2023-02-14T19:17:21.724Z,37.90
2023-02-14T19:19:53.313Z,41.40
2023-02-14T19:22:21.172Z,40.60
2023-02-14T19:24:53.116Z,44.90
2023-02-14T19:27:30.502Z,45.30
2023-02-14T19:29:59.841Z,44.50
2023-02-14T19:32:28.997Z,49.00
2023-02-14T19:34:57.578Z,45.20
2023-02-14T19:37:28.921Z,47.00
2023-02-14T19:39:57.722Z,44.50
2023-02-14T19:42:28.646Z,45.70
2023-02-14T19:44:57.744Z,42.80
2023-02-14T19:47:45.869Z,54.50
2023-02-14T19:50:15.492Z,52.50
2023-02-14T19:52:46.738Z,57.70
2023-02-14T19:55:24.244Z,59.80
2023-02-14T19:57:54.196Z,58.90
2023-02-14T20:00:22.531Z,62.50
2023-02-14T20:02:51.822Z,49.50
2023-02-14T20:05:20.308Z,53.70
2023-02-14T20:07:54.714Z,53.80
2023-02-14T20:10:24.648Z,48.70
2023-02-14T20:12:52.662Z,46.10
2023-02-14T20:15:23.519Z,46.40
2023-02-14T20:17:52.124Z,48.80
2023-02-14T20:20:25.163Z,50.00
2023-02-14T20:22:54.731Z,46.00
2023-02-14T20:25:23.617Z,48.10
2023-02-14T20:27:55.069Z,48.80
2023-02-14T20:30:27.465Z,48.40
2023-02-14T20:32:56.126Z,49.30
2023-02-14T20:35:25.526Z,45.40
2023-02-14T20:37:54.732Z,51.40
2023-02-14T20:40:26.461Z,47.20
2023-02-14T20:42:55.167Z,50.60
2023-02-14T20:45:23.854Z,52.40
2023-02-14T20:47:52.641Z,46.50
2023-02-14T20:50:20.801Z,43.00
2023-02-14T20:52:48.790Z,48.20
2023-02-14T20:55:17.367Z,50.80
2023-02-14T20:57:45.951Z,45.50
2023-02-14T21:00:17.891Z,40.60
2023-02-14T21:02:47.220Z,37.80
2023-02-14T21:05:22.794Z,43.40
2023-02-14T21:07:52.158Z,45.90
2023-02-14T21:10:23.891Z,44.00
2023-02-14T21:12:53.652Z,41.50
2023-02-14T21:15:22.346Z,46.40
2023-02-14T21:17:51.509Z,66.30
2023-02-14T21:20:21.830Z,57.20
2023-02-14T21:22:51.119Z,51.20
2023-02-14T21:25:22.960Z,42.50
2023-02-14T21:27:53.012Z,44.70
2023-02-14T21:30:21.943Z,48.10
2023-02-14T21:32:50.501Z,37.50
2023-02-14T21:35:18.873Z,39.00
2023-02-14T21:37:47.762Z,131.20
2023-02-14T21:40:19.475Z,115.90
2023-02-14T21:42:48.197Z,63.10
2023-02-14T21:45:35.113Z,46.60
2023-02-14T21:48:22.443Z,64.20
2023-02-14T21:50:55.639Z,46.00
2023-02-14T21:53:24.434Z,33.20
2023-02-14T21:55:54.227Z,32.60
2023-02-14T21:58:21.489Z,29.30
2023-02-14T22:00:48.854Z,32.10
2023-02-14T22:03:16.781Z,34.70
2023-02-14T22:05:43.856Z,33.10
2023-02-14T22:08:10.632Z,33.40
2023-02-14T22:10:39.382Z,35.80
2023-02-14T22:13:06.639Z,39.10
2023-02-14T22:15:33.879Z,29.00
2023-02-14T22:18:00.731Z,31.80
2023-02-14T22:20:27.775Z,25.60
2023-02-14T22:22:54.619Z,24.70
2023-02-14T22:25:21.455Z,31.40
2023-02-14T22:27:48.302Z,29.40
2023-02-14T22:30:15.186Z,29.50
2023-02-14T22:32:42.813Z,28.90
2023-02-14T22:35:09.649Z,26.10
2023-02-14T22:37:36.296Z,24.70
2023-02-14T22:40:04.380Z,31.20
2023-02-14T22:42:31.406Z,28.10
2023-02-14T22:44:58.253Z,28.60
2023-02-14T22:47:24.911Z,29.60
2023-02-14T22:49:51.736Z,28.30
2023-02-14T22:52:18.567Z,26.50
2023-02-14T22:54:45.197Z,30.40
2023-02-14T22:57:12.058Z,25.30
2023-02-14T22:59:40.341Z,30.20
2023-02-14T23:02:07.339Z,29.00
2023-02-14T23:04:34.214Z,31.80
2023-02-14T23:07:00.842Z,28.90
2023-02-14T23:09:28.532Z,26.50
2023-02-14T23:11:55.551Z,25.70
2023-02-14T23:14:41.042Z,21.90
2023-02-14T23:17:26.156Z,24.10
2023-02-14T23:20:11.462Z,25.70
2023-02-14T23:22:39.657Z,23.20
2023-02-14T23:25:07.930Z,24.80
2023-02-14T23:27:43.167Z,23.90
2023-02-14T23:30:12.493Z,28.50
2023-02-14T23:32:39.518Z,28.70
2023-02-14T23:35:06.447Z,28.70
2023-02-14T23:37:33.835Z,26.00
2023-02-14T23:40:00.442Z,27.10
2023-02-14T23:42:28.530Z,28.20
2023-02-14T23:45:15.238Z,26.80
2023-02-14T23:47:42.090Z,25.80
2023-02-14T23:50:09.337Z,29.30
2023-02-14T23:52:38.498Z,25.80
2023-02-14T23:55:06.299Z,22.90
2023-02-14T23:57:33.340Z,24.20
